logo
Rechercher aéroport 
image banner adimage banner adimage banner ad
image banner ad

LGIO - Ioannina/ King Pyrros

Situé à Ioannina, Greece

ICAO - LGIO, IATA - IOA

Données fournies par Airmate  

Information générale

Coordonnées: N39°41'50" E20°49'19"
Élévation : 1557 feet MSL.
 
Voir autres Aéroports à Ioannina

Données opérationnelles

Special qualification required
Heure actuelle UTC:
Heure actuelle locale:
Météo
TAF: TAF LGIO 201100Z 2012/2021 VRB03KT 9999 FEW025 PROB30 TEMPO 2012/2015 4000 TSRA FEW010 FEW018CB SCT020 SCT070
Voir NOTAMs / SUP AIP / TFR affectant cet aéroport [VIEW]
Fréquences de communication: [VIEW]

Pistes:

Identifiant RWYQFULongueur (ft)Largeur (ft)SurfaceLDA (ft)
14142°7881148ASP
32322°7881148ASP

Coordonnées de l'aéroport

Adresse: Ioannina Greece

Handlers

Alpha Jet Services

Alpha Jet Services
[VIEW][VIEW]
+306946200300

Jetset Services

Jetset Services

Pandair

Pandair

Skyserv Handling Services

Skyserv Handling Services
[VIEW][VIEW]
+306936093745

Vue satellite de LGIO